Time;durP1;ratioP1;P1;durP2;ratioP2;P2;SDS_P1;SDS_P2;PMS_P1;PMS_P2;Temp;Humidity;BMP_temperature;BMP_pressure;BME280_temperature;BME280_humidity;BME280_pressure;Samples;Min_cycle;Max_cycle;Signal;HPM_P1;HPM_P2
2022/08/19 00:00:13;;;;;;;15.23;11.60;;;18.80;99.90;;;;;;4967708;28;20031;-56
2022/08/19 00:02:39;;;;;;;14.90;11.90;;;18.80;99.90;;;;;;4966520;28;20042;-55
2022/08/19 00:05:05;;;;;;;16.00;12.88;;;18.80;99.90;;;;;;4969099;28;20031;-53
2022/08/19 00:07:31;;;;;;;13.50;11.98;;;18.80;99.90;;;;;;4967377;28;20490;-55
2022/08/19 00:09:57;;;;;;;13.05;11.75;;;18.90;99.90;;;;;;4969854;28;20035;-54
2022/08/19 00:12:22;;;;;;;15.23;12.73;;;18.80;99.90;;;;;;4966203;28;20058;-57
2022/08/19 00:14:48;;;;;;;14.57;12.93;;;18.80;99.90;;;;;;4968849;28;20055;-53
2022/08/19 00:17:13;;;;;;;12.93;11.27;;;18.80;99.90;;;;;;4967437;28;20027;-55
2022/08/19 00:19:40;;;;;;;16.67;12.57;;;18.80;99.90;;;;;;4966751;28;20027;-54
2022/08/19 00:22:08;;;;;;;15.88;12.70;;;18.90;99.90;;;;;;4969196;28;20023;-54
2022/08/19 00:24:34;;;;;;;19.38;14.10;;;18.90;99.90;;;;;;4967258;28;20031;-54
2022/08/19 00:27:01;;;;;;;20.02;15.05;;;18.80;99.90;;;;;;4970134;28;20022;-57
2022/08/19 00:29:27;;;;;;;20.45;14.32;;;18.90;99.90;;;;;;4966957;28;20502;-58
2022/08/19 00:31:54;;;;;;;22.25;15.05;;;18.80;99.90;;;;;;4968661;28;20023;-57
2022/08/19 00:34:21;;;;;;;17.92;15.30;;;18.80;99.90;;;;;;4966694;28;20021;-56
2022/08/19 00:36:47;;;;;;;20.63;15.63;;;18.80;99.90;;;;;;4967550;28;20023;-57
2022/08/19 00:39:17;;;;;;;19.17;15.98;;;18.80;99.90;;;;;;4970603;28;20031;-56
2022/08/19 00:41:45;;;;;;;20.20;15.30;;;18.80;99.90;;;;;;4966850;28;20027;-57
2022/08/19 00:44:14;;;;;;;18.80;14.35;;;18.80;99.90;;;;;;4969911;28;20037;-59
2022/08/19 00:46:44;;;;;;;19.67;15.50;;;18.80;99.90;;;;;;4962338;28;20023;-56
2022/08/19 00:49:32;;;;;;;21.25;16.63;;;18.80;99.90;;;;;;4962432;28;20101;-55
2022/08/19 00:52:04;;;;;;;20.77;16.63;;;18.80;99.90;;;;;;4958897;28;20028;-56
2022/08/19 00:54:31;;;;;;;20.83;14.95;;;18.80;99.90;;;;;;4964029;28;20515;-57
2022/08/19 00:56:59;;;;;;;22.95;17.77;;;18.80;99.90;;;;;;4966362;28;20042;-56
2022/08/19 00:59:25;;;;;;;23.95;17.10;;;18.70;99.90;;;;;;4967373;28;20015;-56
2022/08/19 01:01:51;;;;;;;22.23;17.02;;;18.70;99.90;;;;;;4963514;28;20035;-53
2022/08/19 01:04:16;;;;;;;24.38;18.75;;;18.70;99.90;;;;;;4966606;28;20038;-53
2022/08/19 01:06:42;;;;;;;24.40;20.33;;;18.70;99.90;;;;;;4965076;28;20030;-56
2022/08/19 01:09:08;;;;;;;26.52;19.70;;;18.70;99.90;;;;;;4964240;28;20030;-57
2022/08/19 01:11:38;;;;;;;22.77;16.50;;;18.80;99.90;;;;;;4973474;28;20023;-54
2022/08/19 01:14:05;;;;;;;22.25;18.73;;;18.70;99.90;;;;;;4967786;28;20614;-54
2022/08/19 01:16:32;;;;;;;20.52;17.17;;;18.80;99.90;;;;;;4974046;28;20046;-55
2022/08/19 01:18:58;;;;;;;20.40;15.25;;;18.80;99.90;;;;;;4967697;28;20098;-57
2022/08/19 01:21:38;;;;;;;24.85;17.63;;;18.80;99.90;;;;;;4972045;28;20502;-54
2022/08/19 01:24:04;;;;;;;25.38;18.67;;;18.80;99.90;;;;;;4971302;28;20058;-54
2022/08/19 01:26:30;;;;;;;23.38;18.73;;;18.80;99.90;;;;;;4966882;28;20027;-55
2022/08/19 01:28:58;;;;;;;22.73;16.67;;;18.80;99.90;;;;;;4972714;28;20050;-57
2022/08/19 01:31:31;;;;;;;23.77;17.65;;;18.80;99.90;;;;;;4967814;28;20027;-54
2022/08/19 01:33:57;;;;;;;27.92;19.52;;;18.80;99.90;;;;;;4971325;28;20031;-59
2022/08/19 01:36:45;;;;;;;21.23;17.55;;;18.70;99.90;;;;;;4966634;28;20047;-55
2022/08/19 01:39:18;;;;;;;26.48;18.88;;;18.80;99.90;;;;;;4973429;28;20046;-55
2022/08/19 01:41:43;;;;;;;27.98;19.77;;;18.80;99.90;;;;;;4969769;28;20053;-57
2022/08/19 01:44:10;;;;;;;25.95;18.15;;;18.70;99.90;;;;;;4969839;28;20498;-59
2022/08/19 01:46:36;;;;;;;28.35;17.95;;;18.70;99.90;;;;;;4964816;28;20034;-54
2022/08/19 01:49:04;;;;;;;20.85;16.75;;;18.80;99.90;;;;;;4969242;28;20038;-56
2022/08/19 01:51:30;;;;;;;25.50;16.58;;;18.70;99.90;;;;;;4967010;28;20114;-56
2022/08/19 01:53:56;;;;;;;22.30;17.95;;;18.80;99.90;;;;;;4969942;28;20113;-55
2022/08/19 01:56:23;;;;;;;24.55;17.05;;;18.80;99.90;;;;;;4972467;28;20027;-56
2022/08/19 01:59:02;;;;;;;23.55;16.88;;;18.80;99.90;;;;;;4965742;28;20023;-57
2022/08/19 02:01:31;;;;;;;21.60;16.90;;;18.80;99.90;;;;;;4970347;28;20030;-57
2022/08/19 02:03:58;;;;;;;24.08;17.48;;;18.70;99.90;;;;;;4972253;28;20030;-57
2022/08/19 02:06:24;;;;;;;24.13;16.67;;;18.70;99.90;;;;;;4968422;28;20043;-59
2022/08/19 02:08:49;;;;;;;21.85;14.93;;;18.70;99.90;;;;;;4971858;28;20026;-58
2022/08/19 02:11:38;;;;;;;14.40;12.68;;;18.60;99.90;;;;;;4968699;28;20610;-58
2022/08/19 02:14:07;;;;;;;25.92;16.48;;;18.60;99.90;;;;;;4970971;28;20030;-57
2022/08/19 02:16:33;;;;;;;27.88;16.95;;;18.70;99.90;;;;;;4967773;28;20529;-54
2022/08/19 02:19:00;;;;;;;28.75;18.20;;;18.70;99.90;;;;;;4969302;28;20089;-56
2022/08/19 02:21:26;;;;;;;31.73;18.10;;;18.70;99.90;;;;;;4971964;28;20046;-53
2022/08/19 02:23:52;;;;;;;30.85;17.83;;;18.70;99.90;;;;;;4968421;28;20030;-57
2022/08/19 02:26:19;;;;;;;30.52;17.75;;;18.70;99.90;;;;;;4972042;28;20589;-56
2022/08/19 02:28:44;;;;;;;25.85;16.50;;;18.60;99.90;;;;;;4968470;28;20037;-58
2022/08/19 02:31:12;;;;;;;40.00;20.58;;;18.60;99.90;;;;;;4970240;28;20023;-54
2022/08/19 02:33:38;;;;;;;31.90;19.83;;;18.50;99.90;;;;;;4967375;28;20106;-58
2022/08/19 02:36:05;;;;;;;27.58;19.85;;;18.50;99.90;;;;;;4967446;28;20114;-57
2022/08/19 02:38:31;;;;;;;31.83;19.40;;;18.50;99.90;;;;;;4971058;28;20019;-57
2022/08/19 02:41:02;;;;;;;32.53;19.77;;;18.50;99.90;;;;;;4963683;28;20033;-53
2022/08/19 02:43:29;;;;;;;37.67;21.23;;;18.50;99.90;;;;;;4963543;28;20364;-55
2022/08/19 02:45:55;;;;;;;35.80;20.60;;;18.50;99.90;;;;;;4966603;28;20031;-58
2022/08/19 02:48:22;;;;;;;35.30;19.73;;;18.50;99.90;;;;;;4967518;28;20447;-56
2022/08/19 02:50:54;;;;;;;43.28;19.75;;;18.40;99.90;;;;;;4963356;28;20088;-58
2022/08/19 02:53:23;;;;;;;31.17;19.48;;;18.50;99.90;;;;;;4964317;28;20019;-53
2022/08/19 02:55:49;;;;;;;27.48;17.35;;;18.50;99.90;;;;;;4970118;28;20030;-52
2022/08/19 02:58:15;;;;;;;29.27;17.10;;;18.50;99.90;;;;;;4960890;28;20015;-52
2022/08/19 03:00:46;;;;;;;29.33;17.10;;;18.50;99.90;;;;;;4969249;28;20097;-58
2022/08/19 03:03:12;;;;;;;27.90;17.23;;;18.50;99.90;;;;;;4971217;28;20102;-56
2022/08/19 03:05:39;;;;;;;22.33;15.65;;;18.40;99.90;;;;;;4968122;28;20030;-56
2022/08/19 03:08:05;;;;;;;22.52;16.33;;;18.40;99.90;;;;;;4970433;28;20502;-60
2022/08/19 03:10:32;;;;;;;25.20;15.32;;;18.40;99.90;;;;;;4967319;28;20038;-58
2022/08/19 03:12:57;;;;;;;21.38;13.75;;;18.40;99.90;;;;;;4969170;28;20091;-55
2022/08/19 03:15:23;;;;;;;20.52;14.70;;;18.40;99.90;;;;;;4963673;28;20034;-57
2022/08/19 03:17:48;;;;;;;17.02;14.38;;;18.40;99.90;;;;;;4968530;28;20483;-58
2022/08/19 03:20:14;;;;;;;18.27;14.30;;;18.40;99.90;;;;;;4969485;28;20490;-56
2022/08/19 03:22:40;;;;;;;18.27;13.70;;;18.40;99.90;;;;;;4966951;28;20113;-58
2022/08/19 03:25:06;;;;;;;22.33;14.55;;;18.40;99.90;;;;;;4968538;28;20496;-55
2022/08/19 03:27:31;;;;;;;15.15;12.88;;;18.40;99.90;;;;;;4971531;28;20031;-57
2022/08/19 03:29:57;;;;;;;15.77;13.05;;;18.40;99.90;;;;;;4968875;28;20023;-58
2022/08/19 03:32:22;;;;;;;19.00;13.60;;;18.40;99.90;;;;;;4965132;28;20022;-58
2022/08/19 03:34:49;;;;;;;19.00;15.00;;;18.40;99.90;;;;;;4968062;28;20414;-54
2022/08/19 03:37:14;;;;;;;17.98;14.00;;;18.30;99.90;;;;;;4970467;28;20398;-57
2022/08/19 03:39:41;;;;;;;15.27;12.75;;;18.30;99.90;;;;;;4967229;28;20094;-54
2022/08/19 03:42:08;;;;;;;17.98;14.02;;;18.30;99.90;;;;;;4969097;28;20702;-56
2022/08/19 03:44:36;;;;;;;22.48;15.48;;;18.40;99.90;;;;;;4966335;28;20498;-56
2022/08/19 03:47:01;;;;;;;21.08;15.48;;;18.40;99.90;;;;;;4968455;28;20051;-58
2022/08/19 03:49:29;;;;;;;19.50;14.35;;;18.40;99.90;;;;;;4963884;28;20046;-54
2022/08/19 03:51:56;;;;;;;21.67;15.30;;;18.40;99.90;;;;;;4964061;28;20446;-58
2022/08/19 03:54:24;;;;;;;22.77;15.10;;;18.40;99.90;;;;;;4970018;28;20026;-54
2022/08/19 03:56:51;;;;;;;19.08;14.90;;;18.40;99.90;;;;;;4965910;28;20101;-57
2022/08/19 03:59:25;;;;;;;25.77;17.33;;;18.50;99.90;;;;;;4968855;28;20023;-59
2022/08/19 04:01:56;;;;;;;30.63;17.85;;;18.50;99.90;;;;;;4970594;28;20054;-57
2022/08/19 04:04:22;;;;;;;22.95;16.50;;;18.40;99.90;;;;;;4967076;28;20034;-57
2022/08/19 04:06:48;;;;;;;22.73;16.00;;;18.40;99.90;;;;;;4970602;28;20608;-56
2022/08/19 04:09:14;;;;;;;22.05;15.50;;;18.50;99.90;;;;;;4964421;28;20024;-58
2022/08/19 04:11:49;;;;;;;25.85;18.35;;;18.40;99.90;;;;;;4970338;28;20050;-58
2022/08/19 04:14:20;;;;;;;29.70;18.45;;;18.50;99.90;;;;;;4962906;28;20027;-54
2022/08/19 04:16:48;;;;;;;33.20;20.27;;;18.40;99.90;;;;;;4970369;28;20027;-57
2022/08/19 04:19:15;;;;;;;32.10;21.83;;;18.40;99.90;;;;;;4967166;28;20024;-60
2022/08/19 04:21:42;;;;;;;33.78;22.13;;;18.40;99.90;;;;;;4964681;28;20121;-59
2022/08/19 04:24:12;;;;;;;31.80;20.02;;;18.30;99.90;;;;;;4967838;28;20034;-57
2022/08/19 04:26:38;;;;;;;43.78;24.95;;;18.30;99.90;;;;;;4966392;28;20451;-58
2022/08/19 04:29:11;;;;;;;36.00;22.58;;;18.30;99.90;;;;;;4968495;28;20023;-57
2022/08/19 04:31:37;;;;;;;36.15;22.38;;;18.30;99.90;;;;;;4965707;28;20542;-57
2022/08/19 04:34:07;;;;;;;37.25;23.45;;;18.30;99.90;;;;;;4970329;28;20034;-57
2022/08/19 04:36:35;;;;;;;33.60;22.40;;;18.30;99.90;;;;;;4967250;28;20016;-55
2022/08/19 04:39:19;;;;;;;36.55;22.83;;;18.30;99.90;;;;;;4969422;28;20495;-57
2022/08/19 04:44:31;;;;;;;33.53;22.02;;;18.30;99.90;;;;;;4967744;28;20037;-59
2022/08/19 04:46:57;;;;;;;32.45;21.08;;;18.30;99.90;;;;;;4968829;28;20042;-58
2022/08/19 04:49:23;;;;;;;34.10;23.30;;;18.30;99.90;;;;;;4969774;28;20022;-57
2022/08/19 04:51:53;;;;;;;34.15;22.98;;;18.30;99.90;;;;;;4969243;28;20037;-58
2022/08/19 04:54:22;;;;;;;38.65;24.13;;;18.30;99.90;;;;;;4973094;28;20015;-57
2022/08/19 04:56:49;;;;;;;29.05;20.48;;;18.40;99.90;;;;;;4969219;28;20027;-58
2022/08/19 04:59:15;;;;;;;32.40;23.27;;;18.30;99.90;;;;;;4971381;28;20113;-58
2022/08/19 05:01:43;;;;;;;37.28;22.45;;;18.40;99.90;;;;;;4973705;28;20069;-58
2022/08/19 05:04:09;;;;;;;35.38;22.58;;;18.30;99.90;;;;;;4968985;28;20030;-57
2022/08/19 05:06:35;;;;;;;35.08;22.88;;;18.40;99.90;;;;;;4974056;28;20029;-58
2022/08/19 05:09:04;;;;;;;38.58;22.13;;;18.30;99.90;;;;;;4968210;28;20030;-56
2022/08/19 05:11:34;;;;;;;37.20;21.73;;;18.30;99.90;;;;;;4967809;28;20105;-56
2022/08/19 05:14:00;;;;;;;37.65;22.30;;;18.30;99.90;;;;;;4967143;28;20053;-56
2022/08/19 05:16:27;;;;;;;36.17;21.05;;;18.30;99.90;;;;;;4978093;23;20475;-48
2022/08/19 05:24:26;;;;;;;32.65;19.45;;;18.30;99.90;;;;;;4944056;28;20083;-49
2022/08/19 05:26:52;;;;;;;30.92;18.35;;;18.30;99.90;;;;;;4932949;29;20043;-48
2022/08/19 05:29:20;;;;;;;31.58;19.25;;;18.30;99.90;;;;;;4931081;29;20455;-46
2022/08/19 05:31:49;;;;;;;32.53;18.67;;;18.30;99.90;;;;;;4924445;29;20070;-48
2022/08/19 05:34:15;;;;;;;30.85;19.42;;;18.30;99.90;;;;;;4933424;29;20016;-45
2022/08/19 05:36:43;;;;;;;25.55;18.25;;;18.30;99.90;;;;;;4931199;29;20440;-44
2022/08/19 05:39:11;;;;;;;28.08;18.13;;;18.30;99.90;;;;;;4933775;29;20024;-48
2022/08/19 05:41:46;;;;;;;29.00;18.63;;;18.30;99.90;;;;;;4930202;29;20036;-44
2022/08/19 05:44:12;;;;;;;30.92;19.50;;;18.20;99.90;;;;;;4932972;29;20496;-44
2022/08/19 05:46:38;;;;;;;34.20;20.27;;;18.30;99.90;;;;;;4929805;29;20039;-44
2022/08/19 05:49:06;;;;;;;25.65;18.10;;;18.30;99.90;;;;;;4931725;29;20027;-43
2022/08/19 05:51:33;;;;;;;26.88;18.20;;;18.30;99.90;;;;;;4930150;29;20465;-43
2022/08/19 05:54:00;;;;;;;25.83;18.00;;;18.30;99.90;;;;;;4923886;29;20058;-44
2022/08/19 05:56:25;;;;;;;30.15;18.05;;;18.30;99.90;;;;;;4923576;29;20428;-46
2022/08/19 05:58:52;;;;;;;26.70;17.27;;;18.30;99.90;;;;;;4931036;29;20032;-45
2022/08/19 06:01:18;;;;;;;24.83;17.55;;;18.30;99.90;;;;;;4932738;29;20054;-44
2022/08/19 06:03:45;;;;;;;24.67;15.23;;;18.30;99.90;;;;;;4930854;29;20110;-44
2022/08/19 06:06:13;;;;;;;28.85;18.38;;;18.40;99.90;;;;;;4932685;29;20045;-50
2022/08/19 06:08:39;;;;;;;26.17;17.88;;;18.40;99.90;;;;;;4930148;29;20024;-44
2022/08/19 06:11:23;;;;;;;27.50;18.88;;;18.40;99.90;;;;;;4932164;29;20032;-47
2022/08/19 06:13:52;;;;;;;29.02;19.50;;;18.40;99.90;;;;;;4929057;29;20020;-46
2022/08/19 06:16:22;;;;;;;26.52;18.17;;;18.30;99.90;;;;;;4931300;29;20489;-44
2022/08/19 06:18:52;;;;;;;24.17;18.05;;;18.40;99.90;;;;;;4934148;29;20039;-45
2022/08/19 06:21:20;;;;;;;35.80;18.42;;;18.40;99.90;;;;;;4930035;29;20019;-45
2022/08/19 06:23:47;;;;;;;23.58;17.50;;;18.40;99.90;;;;;;4933521;29;20028;-47
2022/08/19 06:26:14;;;;;;;26.55;17.55;;;18.40;99.90;;;;;;4920177;29;20024;-44
2022/08/19 06:28:43;;;;;;;28.20;18.05;;;18.40;99.90;;;;;;4933750;29;20047;-46
2022/08/19 06:31:09;;;;;;;23.80;17.55;;;18.40;99.90;;;;;;4925983;29;20027;-51
2022/08/19 06:33:35;;;;;;;25.65;17.42;;;18.50;99.90;;;;;;4928349;29;20023;-45
2022/08/19 06:36:01;;;;;;;22.92;15.77;;;18.50;99.90;;;;;;4932039;29;20019;-44
2022/08/19 06:38:26;;;;;;;24.20;16.60;;;18.50;99.90;;;;;;4930763;29;20022;-44
2022/08/19 06:41:01;;;;;;;29.25;17.38;;;18.50;99.90;;;;;;4933048;29;20503;-45
2022/08/19 06:43:26;;;;;;;25.52;16.83;;;18.50;99.90;;;;;;4928923;29;20090;-45
2022/08/19 06:45:52;;;;;;;20.83;15.65;;;18.60;99.90;;;;;;4932962;29;20028;-47
2022/08/19 06:48:18;;;;;;;24.55;16.25;;;18.70;99.90;;;;;;4926286;29;20083;-44
2022/08/19 06:50:43;;;;;;;26.67;16.92;;;18.70;99.90;;;;;;4929191;29;20034;-45
2022/08/19 06:53:09;;;;;;;24.05;17.45;;;18.70;99.90;;;;;;4931460;29;20032;-45
2022/08/19 06:55:34;;;;;;;24.30;17.90;;;18.70;99.90;;;;;;4928442;29;20111;-48
2022/08/19 06:58:04;;;;;;;28.42;17.88;;;18.70;99.90;;;;;;4929608;29;20055;-45
2022/08/19 07:00:30;;;;;;;25.85;16.83;;;18.70;99.90;;;;;;4933178;29;20027;-44
2022/08/19 07:02:55;;;;;;;21.17;15.30;;;18.70;99.90;;;;;;4929348;29;20027;-44
2022/08/19 07:05:21;;;;;;;27.00;18.63;;;18.70;99.90;;;;;;4930908;29;20066;-47
2022/08/19 07:07:46;;;;;;;22.88;16.10;;;18.70;99.90;;;;;;4928886;29;20027;-44
2022/08/19 07:10:12;;;;;;;32.00;17.85;;;18.80;99.90;;;;;;4930893;29;20156;-45
2022/08/19 07:12:38;;;;;;;27.88;17.15;;;18.70;99.90;;;;;;4927702;29;20047;-46
2022/08/19 07:15:05;;;;;;;23.95;17.17;;;18.80;99.90;;;;;;4930039;29;20024;-44
2022/08/19 07:17:31;;;;;;;23.77;17.50;;;18.70;99.90;;;;;;4933053;29;20026;-48
2022/08/19 07:19:58;;;;;;;24.65;17.48;;;18.70;99.90;;;;;;4929974;29;20027;-46
2022/08/19 07:22:24;;;;;;;25.95;18.55;;;18.70;99.90;;;;;;4931158;29;20031;-46
2022/08/19 07:24:49;;;;;;;32.90;19.98;;;18.70;99.90;;;;;;4928256;29;20020;-47
2022/08/19 07:27:15;;;;;;;29.17;18.00;;;18.70;99.90;;;;;;4931003;29;20026;-45
2022/08/19 07:29:41;;;;;;;31.40;18.45;;;18.60;99.90;;;;;;4927884;29;20035;-45
2022/08/19 07:32:08;;;;;;;26.13;18.35;;;18.60;99.90;;;;;;4929688;29;20019;-44
2022/08/19 07:34:37;;;;;;;30.33;18.38;;;18.60;99.90;;;;;;4932068;29;20019;-44
2022/08/19 07:37:04;;;;;;;24.92;18.13;;;18.60;99.90;;;;;;4928619;29;20419;-44
2022/08/19 07:39:32;;;;;;;31.25;19.00;;;18.70;99.90;;;;;;4931381;29;20016;-46
2022/08/19 07:42:00;;;;;;;27.65;18.95;;;18.70;99.90;;;;;;4927865;29;20032;-44
2022/08/19 07:44:26;;;;;;;31.90;19.02;;;18.80;99.90;;;;;;4930386;29;20487;-48
2022/08/19 07:46:55;;;;;;;24.33;17.42;;;18.70;99.90;;;;;;4927238;29;20055;-44
2022/08/19 07:49:22;;;;;;;27.02;17.85;;;18.70;99.90;;;;;;4929672;29;20524;-44
2022/08/19 07:52:01;;;;;;;23.48;17.23;;;18.80;99.90;;;;;;4927870;29;20031;-45
2022/08/19 07:54:30;;;;;;;23.05;17.63;;;18.80;99.90;;;;;;4926326;29;20146;-44
2022/08/19 07:56:57;;;;;;;26.75;17.90;;;18.90;99.90;;;;;;4926518;29;20031;-45
2022/08/19 07:59:23;;;;;;;26.80;17.23;;;18.90;99.90;;;;;;4929423;29;20024;-47
2022/08/19 08:01:49;;;;;;;27.65;17.83;;;19.00;99.90;;;;;;4931975;29;20040;-47
2022/08/19 08:09:45;;;;;;;20.20;15.35;;;19.00;99.90;;;;;;4930333;29;20042;-44
2022/08/19 08:12:16;;;;;;;23.10;16.85;;;19.00;99.90;;;;;;4927615;29;20054;-44
2022/08/19 08:14:47;;;;;;;28.17;17.95;;;19.00;99.90;;;;;;4927980;29;20036;-44
2022/08/19 08:17:13;;;;;;;26.77;16.40;;;19.00;99.90;;;;;;4930796;29;20024;-44
2022/08/19 08:19:40;;;;;;;22.95;16.77;;;19.00;99.90;;;;;;4933706;29;20118;-44
2022/08/19 08:22:07;;;;;;;22.10;14.98;;;19.00;99.90;;;;;;4934372;29;20076;-45
2022/08/19 08:24:33;;;;;;;19.38;15.23;;;19.00;99.90;;;;;;4931640;29;20054;-44
2022/08/19 08:27:00;;;;;;;26.42;17.60;;;19.00;99.90;;;;;;4934150;29;20632;-43
2022/08/19 08:29:29;;;;;;;29.83;16.98;;;19.10;99.90;;;;;;4930905;29;20058;-44
2022/08/19 08:31:55;;;;;;;21.30;15.30;;;19.10;99.90;;;;;;4930417;29;20024;-44
2022/08/19 08:34:20;;;;;;;25.73;17.52;;;19.20;99.90;;;;;;4935505;29;20341;-44
2022/08/19 08:36:46;;;;;;;25.85;16.13;;;19.20;99.90;;;;;;4932794;29;20028;-44
2022/08/19 08:39:14;;;;;;;24.50;16.63;;;19.30;99.90;;;;;;4934973;29;20047;-44
2022/08/19 08:41:44;;;;;;;23.13;15.48;;;19.30;99.90;;;;;;4931319;29;20032;-45
2022/08/19 08:44:31;;;;;;;19.58;14.55;;;19.30;99.90;;;;;;4933556;29;20035;-47
2022/08/19 08:47:03;;;;;;;21.85;16.27;;;19.40;99.90;;;;;;4930319;29;20102;-44
2022/08/19 08:49:40;;;;;;;21.42;15.48;;;19.40;99.90;;;;;;4932921;29;20052;-45
2022/08/19 08:52:13;;;;;;;20.60;15.63;;;19.40;99.90;;;;;;4928962;29;20116;-47
2022/08/19 08:54:42;;;;;;;21.45;15.45;;;19.40;99.90;;;;;;4933565;29;20036;-44
2022/08/19 08:57:15;;;;;;;25.15;15.57;;;19.40;99.90;;;;;;4932877;29;20024;-47
2022/08/19 08:59:42;;;;;;;26.10;17.58;;;19.40;99.90;;;;;;4930989;29;20020;-44
2022/08/19 09:02:09;;;;;;;21.38;17.75;;;19.40;99.90;;;;;;4931254;29;20396;-46
2022/08/19 09:04:37;;;;;;;25.52;18.45;;;19.50;99.90;;;;;;4929705;29;20028;-45
2022/08/19 09:07:46;;;;;;;26.88;16.70;;;19.50;99.90;;;;;;4932314;29;20068;-46
2022/08/19 09:10:26;;;;;;;42.00;20.10;;;19.50;99.90;;;;;;4930546;29;20040;-46
2022/08/19 09:12:58;;;;;;;24.50;16.33;;;19.50;99.90;;;;;;4930711;29;20028;-44
2022/08/19 09:15:38;;;;;;;24.30;17.20;;;19.60;99.90;;;;;;4934875;29;20028;-45
2022/08/19 09:18:06;;;;;;;27.17;17.00;;;19.60;99.90;;;;;;4928818;29;20086;-44
2022/08/19 09:20:31;;;;;;;28.33;17.38;;;19.60;99.90;;;;;;4929632;29;20024;-47
2022/08/19 09:22:58;;;;;;;25.58;17.60;;;19.60;99.90;;;;;;4927829;29;20082;-45
2022/08/19 09:25:24;;;;;;;22.17;16.55;;;19.60;99.90;;;;;;4932429;29;20028;-45
2022/08/19 09:27:53;;;;;;;25.92;17.45;;;19.70;99.90;;;;;;4934648;29;20039;-46
2022/08/19 09:30:29;;;;;;;23.83;17.23;;;19.80;99.90;;;;;;4928604;29;20433;-44
2022/08/19 09:32:55;;;;;;;26.75;17.13;;;19.80;99.90;;;;;;4933982;29;20038;-44
2022/08/19 09:35:23;;;;;;;22.10;17.15;;;19.80;99.90;;;;;;4928080;29;20016;-45
2022/08/19 09:37:50;;;;;;;23.35;17.08;;;19.80;99.90;;;;;;4934386;29;20051;-45
2022/08/19 09:40:16;;;;;;;20.73;17.30;;;19.90;99.90;;;;;;4925584;29;20032;-44
2022/08/19 09:42:47;;;;;;;30.38;17.85;;;19.90;99.90;;;;;;4929129;29;20043;-46
2022/08/19 09:45:14;;;;;;;27.70;17.92;;;20.00;99.90;;;;;;4931489;29;20029;-44
2022/08/19 09:47:40;;;;;;;27.52;16.92;;;20.00;99.90;;;;;;4931429;29;20051;-47
2022/08/19 09:50:08;;;;;;;28.38;17.27;;;20.00;99.90;;;;;;4932221;29;20368;-48
2022/08/19 09:52:36;;;;;;;21.90;17.80;;;20.00;99.90;;;;;;4928648;29;20028;-44
2022/08/19 09:55:04;;;;;;;26.65;17.35;;;20.10;99.90;;;;;;4934151;29;20730;-45
2022/08/19 09:57:30;;;;;;;22.20;17.63;;;20.10;99.90;;;;;;4933597;29;20040;-48
2022/08/19 09:59:55;;;;;;;22.40;15.32;;;20.10;99.90;;;;;;4933249;29;20082;-47
2022/08/19 10:02:21;;;;;;;23.33;15.82;;;20.20;99.90;;;;;;4929985;29;20043;-45
2022/08/19 10:07:31;;;;;;;21.77;15.55;;;20.20;99.90;;;;;;4928527;29;20674;-44
2022/08/19 10:09:56;;;;;;;24.42;15.60;;;20.30;99.90;;;;;;4930272;29;20031;-46
2022/08/19 10:12:22;;;;;;;22.42;15.35;;;20.40;99.90;;;;;;4932135;29;20028;-46
2022/08/19 10:14:48;;;;;;;21.05;14.30;;;20.40;99.90;;;;;;4929159;29;20032;-44
2022/08/19 10:17:14;;;;;;;18.17;14.90;;;20.50;99.90;;;;;;4931847;29;20034;-46
2022/08/19 10:19:40;;;;;;;20.23;14.32;;;20.60;99.90;;;;;;4928785;29;20048;-44
2022/08/19 10:22:06;;;;;;;23.90;15.95;;;20.70;99.90;;;;;;4930083;29;20032;-44
2022/08/19 10:24:35;;;;;;;18.13;14.73;;;20.80;99.90;;;;;;4933513;29;20083;-45
2022/08/19 10:27:05;;;;;;;18.70;15.23;;;20.90;99.90;;;;;;4929984;29;20453;-48
2022/08/19 10:29:33;;;;;;;16.92;13.20;;;20.80;99.90;;;;;;4932664;29;20053;-46
2022/08/19 10:32:05;;;;;;;18.55;15.38;;;20.90;99.90;;;;;;4928716;29;20027;-48
2022/08/19 10:34:31;;;;;;;21.83;14.93;;;20.90;99.90;;;;;;4931304;29;20036;-49
2022/08/19 10:36:57;;;;;;;17.77;14.05;;;20.80;99.90;;;;;;4933491;29;20058;-44
2022/08/19 10:39:23;;;;;;;19.23;15.15;;;20.70;99.90;;;;;;4930530;29;20592;-46
2022/08/19 10:41:48;;;;;;;17.30;14.23;;;20.70;99.90;;;;;;4930013;29;20118;-44
2022/08/19 10:44:16;;;;;;;19.25;15.10;;;20.70;99.90;;;;;;4925745;29;20023;-49
2022/08/19 10:46:46;;;;;;;16.67;13.60;;;20.60;99.90;;;;;;4931749;29;20028;-44
2022/08/19 10:49:13;;;;;;;17.73;13.80;;;20.60;99.90;;;;;;4928169;29;20118;-45
2022/08/19 10:56:50;;;;;;;18.55;13.43;;;20.60;99.90;;;;;;4926801;29;20022;-44
2022/08/19 10:57:10;;;;;;;18.20;14.38;;;20.60;99.90;;;;;;4929027;29;20553;-47
2022/08/19 10:59:35;;;;;;;18.60;13.82;;;20.60;99.90;;;;;;4933211;29;20110;-45
2022/08/19 11:02:03;;;;;;;15.77;13.57;;;20.60;99.90;;;;;;4927317;29;20032;-45
2022/08/19 11:04:28;;;;;;;16.00;13.18;;;20.60;99.90;;;;;;4926114;29;20032;-49
2022/08/19 11:06:55;;;;;;;17.92;14.07;;;20.60;99.90;;;;;;4932571;29;20043;-44
2022/08/19 11:09:29;;;;;;;17.48;13.00;;;20.60;99.90;;;;;;4929503;29;20028;-45
2022/08/19 11:11:56;;;;;;;17.75;11.95;;;20.60;99.90;;;;;;4929957;29;20040;-47
2022/08/19 11:14:23;;;;;;;16.35;12.35;;;20.70;99.90;;;;;;4928774;29;20540;-47
2022/08/19 11:16:51;;;;;;;19.23;14.07;;;20.80;99.90;;;;;;4989179;23;20537;-59
2022/08/19 11:19:18;;;;;;;16.90;15.05;;;20.90;99.90;;;;;;4954418;28;20019;-58
2022/08/19 11:21:46;;;;;;;22.08;14.65;;;21.00;99.90;;;;;;4962744;28;20437;-56
2022/08/19 11:24:16;;;;;;;13.95;12.30;;;21.10;99.90;;;;;;4960013;28;20174;-59
2022/08/19 11:26:43;;;;;;;15.63;12.20;;;21.10;99.90;;;;;;4960409;28;20514;-60
2022/08/19 11:29:12;;;;;;;14.13;11.60;;;21.30;99.90;;;;;;4970013;28;20053;-56
2022/08/19 11:31:39;;;;;;;14.10;12.30;;;21.40;99.90;;;;;;4965954;28;20031;-57
2022/08/19 11:34:07;;;;;;;15.35;12.25;;;21.60;99.90;;;;;;4968505;28;20077;-58
2022/08/19 11:36:34;;;;;;;14.18;11.50;;;21.80;99.90;;;;;;4970853;28;20017;-56
2022/08/19 11:39:00;;;;;;;13.07;11.65;;;22.00;99.90;;;;;;4967786;28;20411;-58
2022/08/19 11:41:27;;;;;;;13.10;10.93;;;22.10;99.90;;;;;;4970157;28;20027;-57
2022/08/19 11:43:54;;;;;;;15.10;10.60;;;22.20;99.90;;;;;;4967169;28;20506;-54
2022/08/19 11:46:23;;;;;;;14.77;11.98;;;22.30;99.90;;;;;;4969665;28;20101;-59
2022/08/19 11:48:50;;;;;;;15.65;10.20;;;22.40;99.90;;;;;;4965960;28;20026;-59
2022/08/19 11:51:19;;;;;;;12.50;11.27;;;22.40;99.90;;;;;;4967800;28;20109;-58
2022/08/19 11:53:46;;;;;;;13.63;10.82;;;22.40;99.90;;;;;;4970738;28;20074;-57
2022/08/19 11:56:12;;;;;;;13.95;12.38;;;22.30;99.90;;;;;;4967596;28;20091;-57
2022/08/19 11:58:38;;;;;;;12.45;10.07;;;22.20;99.90;;;;;;4969876;28;20462;-58
2022/08/19 12:01:13;;;;;;;14.80;11.10;;;22.10;99.90;;;;;;4966817;28;20031;-57
2022/08/19 12:03:39;;;;;;;12.13;10.40;;;22.20;99.90;;;;;;4966626;28;20023;-58
2022/08/19 12:06:06;;;;;;;19.95;10.15;;;22.10;99.90;;;;;;4967223;28;20475;-57
2022/08/19 12:08:32;;;;;;;15.07;11.73;;;22.00;99.90;;;;;;4970663;28;20371;-59
2022/08/19 12:11:00;;;;;;;14.23;11.50;;;22.00;99.90;;;;;;4965541;28;20078;-57
2022/08/19 12:13:27;;;;;;;13.48;10.82;;;22.00;99.90;;;;;;4964491;28;20022;-57
2022/08/19 12:15:53;;;;;;;13.68;11.23;;;22.00;99.90;;;;;;4964226;28;20030;-56
2022/08/19 12:18:19;;;;;;;13.05;11.20;;;22.10;99.90;;;;;;4967537;28;20042;-58
2022/08/19 12:20:47;;;;;;;15.07;11.75;;;22.10;99.90;;;;;;4963630;28;20491;-56
2022/08/19 12:23:13;;;;;;;14.13;11.10;;;22.20;99.90;;;;;;4966138;28;20399;-58
2022/08/19 12:25:51;;;;;;;15.25;12.43;;;22.30;99.90;;;;;;4969376;28;20031;-55
2022/08/19 12:28:18;;;;;;;17.55;12.90;;;22.20;99.90;;;;;;4965211;28;20053;-58
2022/08/19 12:30:43;;;;;;;12.40;11.13;;;22.10;99.90;;;;;;4970754;28;20027;-58
2022/08/19 12:33:09;;;;;;;14.15;12.68;;;22.10;99.90;;;;;;4963849;28;20031;-56
2022/08/19 12:35:36;;;;;;;18.17;10.50;;;22.00;99.90;;;;;;4970592;28;20023;-56
2022/08/19 12:38:02;;;;;;;17.60;11.82;;;22.00;99.90;;;;;;4968830;28;20065;-57
2022/08/19 12:40:28;;;;;;;13.32;11.30;;;22.10;99.90;;;;;;4968321;28;20019;-59
2022/08/19 12:42:54;;;;;;;15.00;12.63;;;22.20;99.90;;;;;;4969568;28;20050;-59
2022/08/19 12:45:20;;;;;;;12.98;11.63;;;22.40;99.90;;;;;;4969200;28;20031;-56
2022/08/19 12:47:46;;;;;;;14.70;13.00;;;22.60;99.90;;;;;;4970314;28;20479;-59
2022/08/19 12:50:12;;;;;;;13.65;12.25;;;22.70;99.90;;;;;;4965078;28;20016;-60